This is the latest recevied weather packets stored in our database for station/object 9W2CEW-1. If no packets are shown the sender has not sent any weather packets the latest 10 day(s).
| Time | Temp. | Humidity | Pressure | Rain* | Wind** | Luminosity | Snow |
|---|---|---|---|---|---|---|---|
| 1787728105 | 38.89° C | 39% | 1004.6 hPa | - | - | - | - |
| 1787727205 | 40° C | 36% | 1004.7 hPa | - | - | - | - |
| 1787726305 | 41.67° C | 34% | 1005 hPa | - | - | - | - |
| 1787725405 | 43.33° C | 33% | 1005.2 hPa | - | - | - | - |
| 1787724505 | 40° C | 38% | 1005.5 hPa | - | - | - | - |
| 1787723605 | 38.89° C | 40% | 1005.6 hPa | - | - | - | - |
| 1787722705 | 38.89° C | 39% | 1006 hPa | - | - | - | - |
| 1787721888 | 38.33° C | 42% | 1006.5 hPa | - | - | - | - |
| 1787721804 | 43.89° C | 32% | 1006.4 hPa | - | - | - | - |
| 1787720904 | 42.78° C | 34% | 1006.8 hPa | - | - | - | - |
| 1787720004 | 40° C | 39% | 1007.2 hPa | - | - | - | - |
| 1787719104 | 37.78° C | 43% | 1007.5 hPa | - | - | - | - |
| 1787719100 | 38.89° C | 41% | 1006.8 hPa | - | - | - | - |
| 1787718864 | 38.89° C | 40% | 1006.4 hPa | - | - | - | - |
| 1787718204 | 33.33° C | 53% | 1007.7 hPa | - | - | - | - |
| 1787717304 | 33.33° C | 56% | 1007.9 hPa | - | - | - | - |
| 1787716506 | 38.89° C | 40% | 1006.4 hPa | - | - | - | - |
| 1787716404 | 35.56° C | 49% | 1008.2 hPa | - | - | - | - |
| 1787715504 | 35.56° C | 48% | 1008.1 hPa | - | - | - | - |
| 1787714604 | 35° C | 49% | 1008.1 hPa | - | - | - | - |
| 1787713703 | 36.67° C | 45% | 1008.3 hPa | - | - | - | - |
| 1787712803 | 37.22° C | 43% | 1008.4 hPa | - | - | - | - |
| 1787711903 | 37.78° C | 43% | 1008.5 hPa | - | - | - | - |
| 1787711004 | 36.67° C | 45% | 1008.1 hPa | - | - | - | - |
| 1787710644 | 38.89° C | 40% | 1006.3 hPa | - | - | - | - |
* Rain since midnight (hover to see other rain measurements)
** Current wind speed in m/s (hover to see current wind gust speed)